createdAt,value
2022-11-24T00:01:09.073Z,98593.31
2022-11-24T00:03:36.433Z,98600.19
2022-11-24T00:06:11.041Z,98598.69
2022-11-24T00:08:39.926Z,98577.38
2022-11-24T00:11:16.522Z,98599.28
2022-11-24T00:13:44.429Z,98594.88
2022-11-24T00:16:12.732Z,98606.44
2022-11-24T00:18:41.917Z,98604.91
2022-11-24T00:21:08.866Z,98607.72
2022-11-24T00:23:36.840Z,98604.78
2022-11-24T00:26:05.645Z,98612.56
2022-11-24T00:28:34.124Z,98629.28
2022-11-24T00:31:01.723Z,98618.16
2022-11-24T00:33:28.699Z,98619.34
2022-11-24T00:35:59.893Z,98629.81
2022-11-24T00:38:27.363Z,98635.19
2022-11-24T00:40:54.354Z,98639.56
2022-11-24T00:43:21.161Z,98647.81
2022-11-24T00:45:48.078Z,98658.72
2022-11-24T00:48:15.374Z,98666.88
2022-11-24T00:50:42.369Z,98665.03
2022-11-24T00:53:10.427Z,98668.28
2022-11-24T00:55:37.215Z,98682.25
2022-11-24T00:58:03.952Z,98686.75
2022-11-24T01:00:30.730Z,98691.66
2022-11-24T01:02:57.583Z,98691.19
2022-11-24T01:05:24.372Z,98682.66
2022-11-24T01:07:51.584Z,98691.25
2022-11-24T01:14:09.365Z,98695.44
2022-11-24T01:16:36.246Z,98705.16
2022-11-24T01:19:04.046Z,98703.22
2022-11-24T01:21:30.825Z,98710.25
2022-11-24T01:23:58.079Z,98710.00
2022-11-24T01:26:24.840Z,98710.16
2022-11-24T01:28:57.282Z,98710.47
2022-11-24T01:31:25.927Z,98724.06
2022-11-24T01:33:53.523Z,98722.19
2022-11-24T01:36:21.079Z,98711.47
2022-11-24T01:38:48.073Z,98712.09
2022-11-24T01:41:21.867Z,98729.25
2022-11-24T01:43:49.906Z,98727.97
2022-11-24T01:46:45.168Z,98742.22
2022-11-24T01:49:18.245Z,98755.25
2022-11-24T01:52:09.296Z,98762.28
2022-11-24T01:54:42.423Z,98770.34
2022-11-24T01:57:32.326Z,98771.38
2022-11-24T02:00:09.971Z,98772.06
2022-11-24T02:06:31.770Z,98767.16
2022-11-24T02:09:06.396Z,98761.41
2022-11-24T02:11:40.045Z,98775.94
2022-11-24T02:14:10.850Z,98775.09
2022-11-24T02:16:39.748Z,98769.09
2022-11-24T02:19:18.778Z,98769.25
2022-11-24T02:21:45.898Z,98768.97
2022-11-24T02:24:29.315Z,98775.06
2022-11-24T02:26:56.222Z,98792.16
2022-11-24T02:29:23.210Z,98809.44
2022-11-24T02:32:01.207Z,98815.72
2022-11-24T02:34:28.116Z,98825.44
2022-11-24T02:36:54.894Z,98825.78
2022-11-24T02:39:21.693Z,98811.72
2022-11-24T02:42:16.520Z,98820.78
2022-11-24T02:44:49.731Z,98827.84
2022-11-24T02:47:17.172Z,98823.34
2022-11-24T02:49:43.966Z,98833.22
2022-11-24T02:52:10.962Z,98834.91
2022-11-24T02:54:37.836Z,98834.56
2022-11-24T02:57:04.861Z,98840.41
2022-11-24T02:59:31.965Z,98851.78
2022-11-24T03:01:58.785Z,98854.97
2022-11-24T03:04:25.613Z,98848.56
2022-11-24T03:06:52.507Z,98842.47
2022-11-24T03:09:19.576Z,98863.59
2022-11-24T03:11:46.475Z,98863.59
2022-11-24T03:14:13.235Z,98879.34
2022-11-24T03:16:40.176Z,98883.69
2022-11-24T03:19:07.034Z,98886.91
2022-11-24T03:21:33.794Z,98884.41
2022-11-24T03:24:00.559Z,98886.72
2022-11-24T03:26:28.078Z,98889.47
2022-11-24T03:28:57.388Z,98896.69
2022-11-24T03:31:24.755Z,98907.41
2022-11-24T03:33:51.937Z,98901.38
2022-11-24T03:36:19.131Z,98904.72
2022-11-24T03:38:45.994Z,98907.59
2022-11-24T03:41:12.935Z,98908.28
2022-11-24T03:43:43.744Z,98915.50
2022-11-24T03:46:12.422Z,98917.34
2022-11-24T03:48:39.915Z,98930.09
2022-11-24T03:51:07.678Z,98938.78
2022-11-24T03:53:34.806Z,98939.66
2022-11-24T03:56:02.598Z,98939.81
2022-11-24T03:58:30.633Z,98937.47
2022-11-24T04:00:58.198Z,98938.31
2022-11-24T04:03:25.435Z,98942.19
2022-11-24T04:05:52.343Z,98943.19
2022-11-24T04:08:19.689Z,98944.88
2022-11-24T04:10:51.540Z,98954.59
2022-11-24T04:13:22.735Z,98953.09
2022-11-24T04:15:49.888Z,98958.44
2022-11-24T04:18:16.844Z,98958.94
2022-11-24T04:20:43.860Z,98975.03
2022-11-24T04:23:11.684Z,98970.97
2022-11-24T04:25:39.288Z,98981.38
2022-11-24T04:28:06.069Z,98984.06
2022-11-24T04:30:32.969Z,98985.91
2022-11-24T04:32:59.749Z,98988.28
2022-11-24T04:35:26.775Z,98986.59
2022-11-24T04:37:53.570Z,98996.16
2022-11-24T04:40:20.691Z,98991.16
2022-11-24T04:42:55.384Z,98993.19
2022-11-24T04:45:23.592Z,98983.47
2022-11-24T04:47:50.474Z,98988.97
2022-11-24T04:50:18.285Z,98984.16
2022-11-24T04:52:45.487Z,98984.31
2022-11-24T04:55:12.545Z,98971.25
2022-11-24T04:57:39.839Z,98981.97
2022-11-24T05:00:10.586Z,98980.66
2022-11-24T05:02:38.015Z,98989.88
2022-11-24T05:05:06.539Z,98979.66
2022-11-24T05:07:33.811Z,98982.16
2022-11-24T05:10:18.946Z,98987.19
2022-11-24T05:12:51.059Z,99000.59
2022-11-24T05:15:18.266Z,98995.25
2022-11-24T05:17:45.186Z,98984.34
2022-11-24T05:20:12.173Z,98992.22
2022-11-24T05:22:38.970Z,99001.75
2022-11-24T05:25:06.076Z,99002.59
2022-11-24T05:27:32.818Z,99000.75
2022-11-24T05:29:59.958Z,98998.06
2022-11-24T05:32:26.771Z,98991.53
2022-11-24T05:34:54.903Z,99003.25
2022-11-24T05:37:21.999Z,99013.00
2022-11-24T05:39:48.786Z,99003.91
2022-11-24T05:42:34.021Z,99002.94
2022-11-24T05:45:00.851Z,99015.84
2022-11-24T05:47:27.598Z,99019.19
2022-11-24T05:49:54.384Z,99023.72
2022-11-24T05:52:21.466Z,99028.91
2022-11-24T05:54:49.002Z,99022.53
2022-11-24T05:57:17.726Z,99024.88
2022-11-24T05:59:44.918Z,99035.44
2022-11-24T06:02:12.185Z,99033.91
2022-11-24T06:04:39.148Z,99037.25
2022-11-24T06:07:12.791Z,99025.34
2022-11-24T06:09:41.306Z,99021.47
2022-11-24T06:12:09.781Z,99031.19
2022-11-24T06:14:37.214Z,99027.03
2022-11-24T06:17:05.806Z,99030.38
2022-11-24T06:19:32.699Z,99040.56
2022-11-24T06:21:59.483Z,99033.53
2022-11-24T06:24:26.415Z,99043.75
2022-11-24T06:26:53.290Z,99037.56
2022-11-24T06:29:20.101Z,99041.06
2022-11-24T06:31:46.919Z,99037.38
2022-11-24T06:34:14.092Z,99045.22
2022-11-24T06:36:40.896Z,99035.84
2022-11-24T06:39:08.269Z,99041.88
2022-11-24T06:41:35.101Z,99038.16
2022-11-24T06:44:05.464Z,99048.91
2022-11-24T06:46:32.569Z,99053.44
2022-11-24T06:49:00.114Z,99046.06
2022-11-24T06:51:27.854Z,99050.22
2022-11-24T06:53:55.130Z,99048.03
2022-11-24T06:56:22.342Z,99049.56
2022-11-24T06:58:52.571Z,99059.09
2022-11-24T07:01:28.053Z,99063.63
2022-11-24T07:03:56.750Z,99048.84
2022-11-24T07:06:25.884Z,99056.38
2022-11-24T07:08:53.167Z,99043.59
2022-11-24T07:11:24.335Z,99046.50
2022-11-24T07:13:56.695Z,99057.22
2022-11-24T07:16:27.734Z,99055.38
2022-11-24T07:18:55.728Z,99062.41
2022-11-24T07:21:24.950Z,99052.69
2022-11-24T07:23:54.057Z,99037.91
2022-11-24T07:26:21.968Z,99030.00
2022-11-24T07:28:49.331Z,99032.53
2022-11-24T07:31:19.205Z,99040.53
2022-11-24T07:33:54.385Z,99026.94
2022-11-24T07:36:22.481Z,99028.09
2022-11-24T07:38:52.438Z,99038.50
2022-11-24T07:41:21.188Z,99026.19
2022-11-24T07:43:49.504Z,99014.25
2022-11-24T07:46:19.542Z,99021.97
2022-11-24T07:48:47.053Z,99033.38
2022-11-24T07:51:13.980Z,99019.56
2022-11-24T07:53:40.827Z,99019.88
2022-11-24T07:56:09.205Z,99012.97
2022-11-24T07:58:37.982Z,99023.19
2022-11-24T08:01:17.216Z,99024.50
2022-11-24T08:03:45.927Z,99030.63
2022-11-24T08:06:36.185Z,99029.28
2022-11-24T08:09:01.152Z,99035.78
2022-11-24T08:11:28.412Z,99043.47
2022-11-24T08:13:55.320Z,99035.06
2022-11-24T08:16:22.607Z,99038.22
2022-11-24T08:18:52.660Z,99032.13
2022-11-24T08:21:20.186Z,99036.75
2022-11-24T08:23:47.431Z,99036.41
2022-11-24T08:26:19.569Z,99042.63
2022-11-24T08:28:48.026Z,99032.81
2022-11-24T08:31:18.994Z,99031.44
2022-11-24T08:33:46.671Z,99028.56
2022-11-24T08:36:19.666Z,99024.66
2022-11-24T08:38:46.844Z,99030.69
2022-11-24T08:41:16.778Z,99038.75
2022-11-24T08:43:46.524Z,99032.38
2022-11-24T08:46:19.357Z,99045.81
2022-11-24T08:48:52.563Z,99027.00
2022-11-24T08:51:23.391Z,99004.31
2022-11-24T08:53:58.783Z,99013.56
2022-11-24T08:56:27.573Z,99000.44
2022-11-24T08:58:55.946Z,98985.28
2022-11-24T09:01:23.760Z,99000.22
2022-11-24T09:03:51.780Z,98993.00
2022-11-24T09:06:23.184Z,98983.06
2022-11-24T09:08:50.442Z,98983.53
2022-11-24T09:11:18.774Z,99000.34
2022-11-24T09:13:46.307Z,98990.41
2022-11-24T09:16:20.537Z,98990.22
2022-11-24T09:18:48.299Z,98999.75
2022-11-24T09:21:20.184Z,98992.34
2022-11-24T09:23:52.747Z,98984.56
2022-11-24T09:26:24.753Z,98982.53
2022-11-24T09:28:55.781Z,98983.44
2022-11-24T09:31:26.598Z,98980.22
2022-11-24T09:33:54.634Z,98982.34
2022-11-24T09:36:22.274Z,98969.63
2022-11-24T09:38:49.680Z,98972.09
2022-11-24T09:41:54.633Z,98961.44
2022-11-24T09:45:13.726Z,98963.19
2022-11-24T09:47:49.738Z,98958.25
2022-11-24T09:50:20.999Z,98960.00
2022-11-24T09:53:12.178Z,98944.75
2022-11-24T09:55:46.777Z,98942.97
2022-11-24T09:58:53.650Z,98940.34
2022-11-24T10:01:27.922Z,98944.78
2022-11-24T10:03:56.943Z,98945.84
2022-11-24T10:06:32.112Z,98942.59
2022-11-24T10:09:36.361Z,98929.81
2022-11-24T10:12:40.186Z,98922.81
2022-11-24T10:15:44.707Z,98914.81
2022-11-24T10:18:56.958Z,98905.94
2022-11-24T10:21:37.542Z,98908.28
2022-11-24T10:24:48.093Z,98908.13
2022-11-24T10:27:22.442Z,98900.75
2022-11-24T10:29:53.321Z,98890.84
2022-11-24T10:32:27.064Z,98886.97
2022-11-24T10:34:56.246Z,98871.09
2022-11-24T10:37:37.597Z,98860.75
2022-11-24T10:40:55.386Z,98841.22
2022-11-24T10:43:14.114Z,98848.75
2022-11-24T10:45:41.415Z,98837.34
2022-11-24T10:48:26.636Z,98833.84
2022-11-24T10:51:01.323Z,98825.53
2022-11-24T10:53:31.611Z,98842.00
2022-11-24T10:56:05.172Z,98828.94
2022-11-24T10:58:38.093Z,98821.66
2022-11-24T11:01:14.518Z,98818.75
2022-11-24T11:03:56.683Z,98801.94
2022-11-24T11:06:29.626Z,98800.06
2022-11-24T11:09:08.873Z,98811.47
2022-11-24T11:11:39.362Z,98811.50
2022-11-24T11:14:13.079Z,98797.38
2022-11-24T11:16:40.083Z,98799.03
2022-11-24T11:19:49.745Z,98793.25
2022-11-24T11:22:37.031Z,98777.03
2022-11-24T11:25:08.150Z,98784.94
2022-11-24T11:27:34.909Z,98759.38
2022-11-24T11:36:16.164Z,98758.72
2022-11-24T11:38:44.361Z,98745.19
2022-11-24T11:41:22.111Z,98741.66
2022-11-24T11:43:57.639Z,98737.06
2022-11-24T11:46:26.878Z,98740.38
2022-11-24T11:48:53.995Z,98727.06
2022-11-24T11:51:59.508Z,98714.38
2022-11-24T11:54:42.507Z,98717.28
2022-11-24T11:57:47.331Z,98710.19
2022-11-24T12:00:22.123Z,98710.34
2022-11-24T12:03:17.349Z,98702.03
2022-11-24T12:06:30.425Z,98694.53
2022-11-24T12:09:24.176Z,98680.19
2022-11-24T12:12:35.543Z,98678.75
2022-11-24T12:15:37.848Z,98666.88
2022-11-24T12:19:20.423Z,98675.41
2022-11-24T12:22:05.190Z,98668.34
2022-11-24T12:25:06.063Z,98655.44
2022-11-24T12:27:47.386Z,98655.81
2022-11-24T12:30:19.029Z,98638.31
2022-11-24T12:33:19.074Z,98616.41
2022-11-24T12:35:49.362Z,98634.47
2022-11-24T12:38:49.894Z,98631.97
2022-11-24T12:41:43.593Z,98626.53
2022-11-24T12:44:50.414Z,98611.28
2022-11-24T12:47:29.988Z,98615.22
2022-11-24T12:50:10.888Z,98594.78
2022-11-24T12:53:22.200Z,98591.47
2022-11-24T12:55:49.658Z,98571.84
2022-11-24T12:58:41.108Z,98593.50
2022-11-24T13:01:23.170Z,98564.78
2022-11-24T13:04:27.123Z,98566.66
2022-11-24T13:06:53.841Z,98558.94
2022-11-24T13:09:20.980Z,98551.47
2022-11-24T13:11:51.590Z,98554.78
2022-11-24T13:14:38.192Z,98549.81
2022-11-24T13:17:33.757Z,98565.88
2022-11-24T13:20:21.728Z,98562.13
2022-11-24T13:22:58.559Z,98553.59
2022-11-24T13:25:34.503Z,98549.28
2022-11-24T13:28:04.080Z,98552.47
2022-11-24T13:30:34.120Z,98538.75
2022-11-24T13:33:30.724Z,98545.66
2022-11-24T13:36:04.265Z,98550.28
2022-11-24T13:38:46.165Z,98551.78
2022-11-24T13:41:33.265Z,98545.97
2022-11-24T13:44:15.348Z,98548.06
2022-11-24T13:47:26.431Z,98550.97
2022-11-24T13:49:53.482Z,98556.19
2022-11-24T13:52:38.842Z,98574.31
2022-11-24T13:55:11.870Z,98563.69
2022-11-24T13:57:42.238Z,98584.72
2022-11-24T14:00:34.102Z,98635.50
2022-11-24T14:03:13.525Z,98645.81
2022-11-24T14:05:49.365Z,98635.28
2022-11-24T14:08:38.505Z,98641.16
2022-11-24T14:11:15.543Z,98651.09
2022-11-24T14:13:42.310Z,98658.94
2022-11-24T14:16:09.143Z,98662.25
2022-11-24T14:18:39.007Z,98670.50
2022-11-24T14:21:37.503Z,98662.19
2022-11-24T14:24:25.670Z,98644.75
2022-11-24T14:26:52.827Z,98634.34
2022-11-24T14:29:24.959Z,98613.19
2022-11-24T14:31:59.070Z,98587.91
2022-11-24T14:34:28.996Z,98589.16
2022-11-24T14:36:57.975Z,98584.97
2022-11-24T14:39:27.451Z,98571.72
2022-11-24T14:42:27.929Z,98546.84
2022-11-24T14:45:01.182Z,98557.25
2022-11-24T14:47:37.872Z,98560.97
2022-11-24T14:50:16.225Z,98561.81
2022-11-24T14:52:54.185Z,98561.41
2022-11-24T14:55:29.923Z,98554.34
2022-11-24T14:57:58.497Z,98564.50
2022-11-24T15:00:29.976Z,98556.00
2022-11-24T15:03:17.308Z,98554.13
2022-11-24T15:05:51.557Z,98557.66
2022-11-24T15:08:18.682Z,98569.06
2022-11-24T15:10:46.401Z,98549.56
2022-11-24T15:13:23.846Z,98542.50
2022-11-24T15:16:00.532Z,98566.13
2022-11-24T15:18:48.673Z,98580.03
2022-11-24T15:21:19.502Z,98575.03
2022-11-24T15:24:07.476Z,98560.94
2022-11-24T15:26:40.012Z,98580.84
2022-11-24T15:29:09.829Z,98576.50
2022-11-24T15:31:37.376Z,98573.78
2022-11-24T15:34:04.593Z,98572.13
2022-11-24T15:36:31.563Z,98586.22
2022-11-24T15:38:58.289Z,98594.97
2022-11-24T15:41:31.171Z,98615.88
2022-11-24T15:44:01.363Z,98612.78
2022-11-24T15:46:30.556Z,98616.53
2022-11-24T15:48:57.483Z,98608.22
2022-11-24T15:51:27.039Z,98612.97
2022-11-24T15:54:00.638Z,98609.84
2022-11-24T15:56:35.819Z,98630.56
2022-11-24T15:59:03.856Z,98627.44
2022-11-24T16:01:33.771Z,98629.28
2022-11-24T16:04:02.163Z,98630.06
2022-11-24T16:06:29.189Z,98627.38
2022-11-24T16:08:57.756Z,98621.38
2022-11-24T16:11:25.016Z,98630.06
2022-11-24T16:13:53.728Z,98631.31
2022-11-24T16:16:23.227Z,98628.44
2022-11-24T16:18:50.247Z,98640.84
2022-11-24T16:21:17.092Z,98642.53
2022-11-24T16:23:43.851Z,98642.53
2022-11-24T16:26:11.364Z,98650.19
2022-11-24T16:28:38.134Z,98660.75
2022-11-24T16:31:04.935Z,98662.84
2022-11-24T16:33:31.808Z,98662.22
2022-11-24T16:35:58.880Z,98654.97
2022-11-24T16:38:25.671Z,98669.03
2022-11-24T16:40:54.725Z,98664.47
2022-11-24T16:43:21.583Z,98673.56
2022-11-24T16:46:09.579Z,98676.28
2022-11-24T16:48:37.243Z,98684.78
2022-11-24T16:51:10.212Z,98693.03
2022-11-24T16:53:38.205Z,98703.63
2022-11-24T16:56:05.747Z,98722.94
2022-11-24T16:58:32.665Z,98736.00
2022-11-24T17:01:07.802Z,98747.84
2022-11-24T17:03:37.551Z,98739.63
2022-11-24T17:06:07.386Z,98717.63
2022-11-24T17:08:36.578Z,98718.94
2022-11-24T17:11:29.955Z,98727.41
2022-11-24T17:13:58.538Z,98741.94
2022-11-24T17:16:27.272Z,98740.50
2022-11-24T17:18:54.668Z,98745.44
2022-11-24T17:21:27.616Z,98736.72
2022-11-24T17:24:00.435Z,98735.88
2022-11-24T17:26:28.537Z,98733.81
2022-11-24T17:28:56.386Z,98754.94
2022-11-24T17:31:29.384Z,98745.78
2022-11-24T17:33:58.978Z,98738.31
2022-11-24T17:36:27.814Z,98738.50
2022-11-24T17:38:54.597Z,98733.72
2022-11-24T17:41:22.384Z,98735.56
2022-11-24T17:43:51.136Z,98732.38
2022-11-24T17:46:18.219Z,98725.97
2022-11-24T17:48:45.093Z,98733.44
2022-11-24T17:51:20.584Z,98732.13
2022-11-24T17:53:49.899Z,98745.16
2022-11-24T17:56:26.427Z,98750.13
2022-11-24T17:59:00.685Z,98759.22
2022-11-24T18:01:32.567Z,98750.91
2022-11-24T18:03:59.585Z,98750.69
2022-11-24T18:06:29.076Z,98750.00
2022-11-24T18:08:57.824Z,98744.78
2022-11-24T18:11:31.383Z,98747.88
2022-11-24T18:14:03.125Z,98756.97
2022-11-24T18:16:34.981Z,98749.03
2022-11-24T18:19:09.360Z,98755.63
2022-11-24T18:21:38.546Z,98755.38
2022-11-24T18:24:05.702Z,98751.81
2022-11-24T18:26:32.473Z,98747.25
2022-11-24T18:28:59.360Z,98764.16
2022-11-24T18:31:26.489Z,98766.22
2022-11-24T18:33:53.296Z,98775.31
2022-11-24T18:36:28.373Z,98775.31
2022-11-24T18:38:57.510Z,98770.50
2022-11-24T18:41:24.674Z,98779.78
2022-11-24T18:43:51.527Z,98777.69
2022-11-24T18:46:19.132Z,98798.38
2022-11-24T18:48:46.242Z,98793.38
2022-11-24T18:51:16.689Z,98807.81
2022-11-24T18:53:46.077Z,98810.50
2022-11-24T18:56:16.996Z,98806.34
2022-11-24T18:58:44.911Z,98809.88
2022-11-24T19:01:17.959Z,98804.03
2022-11-24T19:03:49.316Z,98812.69
2022-11-24T19:06:24.049Z,98811.00
2022-11-24T19:08:54.859Z,98836.25
2022-11-24T19:11:35.471Z,98831.88
2022-11-24T19:14:04.615Z,98835.59
2022-11-24T19:16:31.835Z,98841.16
2022-11-24T19:19:00.417Z,98842.38
2022-11-24T19:21:28.775Z,98848.41
2022-11-24T19:23:59.806Z,98847.78
2022-11-24T19:26:30.145Z,98842.38
2022-11-24T19:28:56.953Z,98830.78
2022-11-24T19:31:23.826Z,98832.63
2022-11-24T19:33:52.988Z,98826.25
2022-11-24T19:36:21.729Z,98826.25
2022-11-24T19:38:57.099Z,98829.13
2022-11-24T19:41:28.077Z,98828.94
2022-11-24T19:43:55.335Z,98821.34
2022-11-24T19:46:26.375Z,98815.75
2022-11-24T19:48:56.230Z,98833.56
2022-11-24T19:51:26.661Z,98830.88
2022-11-24T19:53:54.329Z,98833.19
2022-11-24T19:56:24.478Z,98832.16
2022-11-24T19:58:52.270Z,98829.75
2022-11-24T20:01:25.987Z,98818.97
2022-11-24T20:04:02.478Z,98806.81
2022-11-24T20:06:33.890Z,98806.91
2022-11-24T20:09:01.764Z,98802.16
2022-11-24T20:11:29.640Z,98801.38
2022-11-24T20:13:57.435Z,98804.91
2022-11-24T20:16:30.951Z,98804.91
2022-11-24T20:19:10.969Z,98808.41
2022-11-24T20:21:39.892Z,98801.38
2022-11-24T20:24:15.796Z,98802.63
2022-11-24T20:26:49.852Z,98800.09
2022-11-24T20:29:17.421Z,98813.94
2022-11-24T20:31:50.864Z,98802.06
2022-11-24T20:34:19.075Z,98802.25
2022-11-24T20:36:47.804Z,98800.44
2022-11-24T20:39:25.599Z,98798.75
2022-11-24T20:41:54.240Z,98800.78
2022-11-24T20:44:22.869Z,98811.56
2022-11-24T20:46:50.009Z,98795.78
2022-11-24T20:49:20.509Z,98789.75
2022-11-24T20:51:47.938Z,98784.78
2022-11-24T20:54:18.268Z,98779.13
2022-11-24T20:56:46.800Z,98776.03
2022-11-24T20:59:18.446Z,98765.09
2022-11-24T21:01:46.838Z,98771.69
2022-11-24T21:04:19.766Z,98768.72
2022-11-24T21:06:47.841Z,98759.66
2022-11-24T21:09:15.063Z,98753.63
2022-11-24T21:11:42.822Z,98743.53
2022-11-24T21:14:10.435Z,98732.75
2022-11-24T21:16:40.575Z,98737.28
2022-11-24T21:19:12.695Z,98744.72
2022-11-24T21:21:42.981Z,98742.88
2022-11-24T21:24:18.980Z,98737.22
2022-11-24T21:26:50.553Z,98740.38
2022-11-24T21:29:19.368Z,98753.41
2022-11-24T21:31:46.431Z,98762.72
2022-11-24T21:34:18.705Z,98764.19
2022-11-24T21:36:45.957Z,98774.75
2022-11-24T21:39:14.958Z,98765.88
2022-11-24T21:41:42.706Z,98775.03
2022-11-24T21:44:12.434Z,98766.59
2022-11-24T21:46:45.016Z,98772.97
2022-11-24T21:49:16.319Z,98778.81
2022-11-24T21:51:43.275Z,98789.38
2022-11-24T21:54:10.083Z,98796.25
2022-11-24T21:56:36.885Z,98782.78
2022-11-24T21:59:03.739Z,98783.59
2022-11-24T22:01:30.555Z,98780.56
2022-11-24T22:03:57.792Z,98767.75
2022-11-24T22:06:24.583Z,98768.38
2022-11-24T22:08:51.466Z,98762.16
2022-11-24T22:11:22.742Z,98778.78
2022-11-24T22:13:51.190Z,98771.97
2022-11-24T22:16:23.628Z,98775.31
2022-11-24T22:18:51.176Z,98788.19
2022-11-24T22:21:23.912Z,98792.53
2022-11-24T22:23:52.677Z,98792.00
2022-11-24T22:26:22.296Z,98782.88
2022-11-24T22:28:49.741Z,98754.94
2022-11-24T22:31:23.019Z,98764.84
2022-11-24T22:33:51.392Z,98771.72
2022-11-24T22:36:23.425Z,98783.97
2022-11-24T22:38:56.022Z,98769.22
2022-11-24T22:41:23.577Z,98775.06
2022-11-24T22:43:50.443Z,98780.44
2022-11-24T22:46:20.842Z,98786.47
2022-11-24T22:48:49.868Z,98778.75
2022-11-24T22:51:20.420Z,98772.38
2022-11-24T22:53:53.137Z,98775.44
2022-11-24T22:56:20.595Z,98763.25
2022-11-24T22:58:47.855Z,98771.31
2022-11-24T23:01:21.289Z,98765.50
2022-11-24T23:03:49.118Z,98773.00
2022-11-24T23:06:25.194Z,98782.34
2022-11-24T23:08:53.475Z,98788.00
2022-11-24T23:11:32.706Z,98799.16
2022-11-24T23:14:02.365Z,98802.09
2022-11-24T23:16:30.344Z,98817.66
2022-11-24T23:18:58.060Z,98819.91
2022-11-24T23:21:28.993Z,98822.69
2022-11-24T23:23:58.097Z,98829.94
2022-11-24T23:26:40.158Z,98833.19
2022-11-24T23:29:07.817Z,98835.88
2022-11-24T23:31:34.997Z,98852.03
2022-11-24T23:34:04.296Z,98849.16
2022-11-24T23:36:32.592Z,98861.59
2022-11-24T23:39:06.603Z,98859.38
2022-11-24T23:41:33.496Z,98868.91
2022-11-24T23:44:00.887Z,98875.94
2022-11-24T23:46:28.335Z,98873.88
2022-11-24T23:48:56.174Z,98884.03
2022-11-24T23:51:31.178Z,98886.72
2022-11-24T23:53:59.360Z,98879.69
2022-11-24T23:56:33.125Z,98889.03
2022-11-24T23:59:01.854Z,98895.44
